Time;durP1;ratioP1;P1;durP2;ratioP2;P2;SDS_P1;SDS_P2;PMS_P1;PMS_P2;Temp;Humidity;BMP_temperature;BMP_pressure;BME280_temperature;BME280_humidity;BME280_pressure;Samples;Min_cycle;Max_cycle;Signal;HPM_P1;HPM_P2
2023/02/27 00:01:14;;;;;;;18.90;12.70;;;;;;;1.63;100.00;96665.64;110507;1241;71143;-68
2023/02/27 00:03:43;;;;;;;19.40;13.00;;;;;;;1.63;100.00;96668.71;110495;1242;69164;-68
2023/02/27 00:06:12;;;;;;;21.00;12.30;;;;;;;1.63;100.00;96668.20;110495;1242;69668;-68
2023/02/27 00:08:43;;;;;;;18.60;12.50;;;;;;;1.62;100.00;96678.89;110487;1242;59384;-68
2023/02/27 00:11:12;;;;;;;;;;;;;;;1.60;100.00;96681.58;110556;1243;58863;-68
2023/02/27 00:13:42;;;;;;;16.30;9.90;;;;;;;1.57;100.00;96687.71;110526;1241;70594;-68
2023/02/27 00:16:12;;;;;;;13.00;9.40;;;;;;;1.59;100.00;96686.41;110499;1242;68662;-68
2023/02/27 00:18:43;;;;;;;13.40;9.60;;;;;;;1.61;100.00;96682.56;110510;1240;69916;-68
2023/02/27 00:21:12;;;;;;;;;;;;;;;1.62;100.00;96676.14;110415;1243;58903;-68
2023/02/27 00:23:42;;;;;;;21.10;12.70;;;;;;;1.62;100.00;96675.77;110498;1242;58871;-70
2023/02/27 00:26:11;;;;;;;16.70;12.50;;;;;;;1.61;100.00;96675.31;110439;1243;70609;-69
2023/02/27 00:28:41;;;;;;;24.00;14.30;;;;;;;1.61;100.00;96681.85;110334;1243;69071;-69
2023/02/27 00:31:12;;;;;;;18.10;12.50;;;;;;;1.59;100.00;96687.95;110456;1241;69709;-68
2023/02/27 00:33:42;;;;;;;25.90;16.30;;;;;;;1.56;100.00;96683.13;110528;1241;58940;-68
2023/02/27 00:36:12;;;;;;;25.60;15.70;;;;;;;1.52;100.00;96675.40;110350;1242;58876;-68
2023/02/27 00:38:41;;;;;;;20.40;12.60;;;;;;;1.49;100.00;96674.86;110585;1242;69905;-67
2023/02/27 00:41:11;;;;;;;39.70;17.00;;;;;;;1.47;100.00;96681.84;110196;1245;68504;-68
2023/02/27 00:43:41;;;;;;;26.80;16.20;;;;;;;1.43;100.00;96683.89;110591;1243;69869;-68
2023/02/27 00:46:12;;;;;;;23.50;13.90;;;;;;;1.42;100.00;96682.27;110550;1241;58943;-68
2023/02/27 00:48:42;;;;;;;23.20;14.20;;;;;;;1.41;100.00;96684.20;110391;1242;58883;-68
2023/02/27 00:51:11;;;;;;;29.60;15.50;;;;;;;1.40;100.00;96685.27;110177;1246;70157;-68
2023/02/27 00:53:41;;;;;;;24.30;14.60;;;;;;;1.39;100.00;96688.42;110482;1241;69221;-68
2023/02/27 00:56:12;;;;;;;26.50;14.30;;;;;;;1.36;100.00;96691.98;110535;1240;68325;-68
2023/02/27 00:58:42;;;;;;;27.30;15.30;;;;;;;1.31;100.00;96689.97;110340;1241;58949;-68
2023/02/27 01:01:14;;;;;;;27.70;15.80;;;;;;;1.31;100.00;96682.41;110447;1243;58893;-67
2023/02/27 01:03:44;;;;;;;24.30;15.10;;;;;;;1.27;100.00;96681.58;110466;1242;70528;-67
2023/02/27 01:06:14;;;;;;;21.70;12.10;;;;;;;1.27;100.00;96678.14;110344;1242;69155;-68
2023/02/27 01:08:43;;;;;;;;;;;;;;;1.31;100.00;96676.25;110396;1241;69264;-67
2023/02/27 01:11:14;;;;;;;20.20;12.50;;;;;;;1.32;100.00;96676.73;110494;1242;58919;-68
2023/02/27 01:13:45;;;;;;;21.90;13.80;;;;;;;1.35;100.00;96676.59;110422;1241;58820;-68
2023/02/27 01:16:15;;;;;;;23.20;13.90;;;;;;;1.35;100.00;96671.41;110183;1241;69884;-68
2023/02/27 01:18:46;;;;;;;30.00;17.20;;;;;;;1.34;100.00;96676.84;110366;1242;68520;-68
2023/02/27 01:21:16;;;;;;;;;;;;;;;1.31;100.00;96685.84;110433;1240;69211;-68
2023/02/27 01:23:46;;;;;;;;;;;;;;;1.28;100.00;96689.59;110520;1249;58937;-68
2023/02/27 01:26:20;;;;;;;34.10;14.80;;;;;;;1.27;100.00;96691.35;110456;1245;58857;-68
2023/02/27 01:28:50;;;;;;;29.60;17.10;;;;;;;1.24;100.00;96697.54;110492;1242;70354;-68
2023/02/27 01:31:21;;;;;;;26.00;14.70;;;;;;;1.22;100.00;96695.04;110486;1241;69244;-68
2023/02/27 01:33:50;;;;;;;27.10;14.80;;;;;;;1.16;100.00;96691.37;110196;1241;68534;-68
2023/02/27 01:36:21;;;;;;;23.00;12.90;;;;;;;1.13;100.00;96685.35;110488;1242;58896;-67
2023/02/27 01:38:52;;;;;;;27.30;13.60;;;;;;;1.16;100.00;96681.25;110188;1241;58935;-68
2023/02/27 01:41:22;;;;;;;24.80;14.60;;;;;;;1.15;100.00;96673.73;110502;1245;70874;-68
2023/02/27 01:44:03;;;;;;;30.50;15.20;;;;;;;1.17;100.00;96670.03;110456;1240;68624;-68
2023/02/27 01:46:34;;;;;;;21.70;13.30;;;;;;;1.18;100.00;96677.38;110461;1241;67666;-68
2023/02/27 01:49:14;;;;;;;25.30;13.30;;;;;;;1.20;100.00;96675.56;110330;1241;58935;-68
2023/02/27 01:52:06;;;;;;;25.90;13.10;;;;;;;1.21;100.00;96678.78;110505;1241;58904;-68
2023/02/27 01:54:40;;;;;;;74.80;15.90;;;;;;;1.20;100.00;96689.98;110551;1241;70942;-68
2023/02/27 01:57:10;;;;;;;26.90;12.80;;;;;;;1.22;100.00;96691.79;110526;1242;69704;-68
2023/02/27 01:59:42;;;;;;;22.20;12.90;;;;;;;1.22;100.00;96690.44;110315;1240;69134;-68
2023/02/27 02:02:24;;;;;;;20.40;11.50;;;;;;;1.23;100.00;96684.20;110284;1241;58958;-68
2023/02/27 02:04:57;;;;;;;23.10;13.20;;;;;;;1.23;100.00;96685.91;110508;1241;58875;-68
2023/02/27 02:07:28;;;;;;;20.90;11.70;;;;;;;1.19;100.00;96690.90;110488;1242;69893;-68
2023/02/27 02:10:01;;;;;;;16.90;10.90;;;;;;;1.20;100.00;96692.73;110559;1241;68553;-68
2023/02/27 02:12:36;;;;;;;17.40;11.40;;;;;;;1.22;100.00;96687.98;109983;1241;644653;-69
2023/02/27 02:15:06;;;;;;;21.80;12.40;;;;;;;1.25;100.00;96688.41;110511;1242;58896;-68
2023/02/27 02:17:50;;;;;;;16.00;10.40;;;;;;;1.24;100.00;96688.91;110581;1241;58943;-69
2023/02/27 02:20:53;;;;;;;17.40;10.90;;;;;;;1.25;100.00;96681.33;110315;1242;70894;-68
2023/02/27 02:23:54;;;;;;;15.80;9.50;;;;;;;1.29;100.00;96676.85;110620;1247;69264;-68
2023/02/27 02:26:42;;;;;;;15.10;10.90;;;;;;;1.34;100.00;96678.33;110003;1248;69347;-68
2023/02/27 02:29:36;;;;;;;17.00;11.00;;;;;;;1.38;100.00;96686.06;110583;1241;58933;-69
2023/02/27 02:32:14;;;;;;;16.40;10.10;;;;;;;1.41;100.00;96684.71;110452;1241;58949;-68
2023/02/27 02:35:24;;;;;;;16.20;10.30;;;;;;;1.43;100.00;96685.29;110445;1241;69833;-68
2023/02/27 02:38:13;;;;;;;16.20;9.80;;;;;;;1.44;100.00;96686.79;110567;1248;69252;-68
2023/02/27 02:41:09;;;;;;;17.00;10.20;;;;;;;1.44;100.00;96684.75;110195;1244;69277;-68
2023/02/27 02:44:09;;;;;;;17.10;10.50;;;;;;;1.42;100.00;96687.20;110560;1243;58896;-68
2023/02/27 02:46:55;;;;;;;17.50;11.00;;;;;;;1.43;100.00;96694.91;110466;1241;58861;-68
2023/02/27 02:49:31;;;;;;;15.20;9.90;;;;;;;1.41;100.00;96704.48;110440;1241;69811;-69
2023/02/27 02:52:10;;;;;;;16.60;11.60;;;;;;;1.39;100.00;96707.47;110339;1241;69361;-68
2023/02/27 02:54:48;;;;;;;14.60;10.60;;;;;;;1.34;100.00;96703.07;110395;1241;68511;-68
2023/02/27 02:57:29;;;;;;;18.20;11.80;;;;;;;1.30;100.00;96700.14;110150;1244;58935;-68
2023/02/27 03:00:11;;;;;;;16.40;11.30;;;;;;;1.29;100.00;96699.88;110161;1240;59023;-68
2023/02/27 03:02:53;;;;;;;19.80;11.80;;;;;;;1.26;100.00;96700.72;110163;1242;70618;-68
2023/02/27 03:05:42;;;;;;;19.60;12.10;;;;;;;1.23;100.00;96704.61;110183;1244;69407;-68
2023/02/27 03:08:22;;;;;;;17.40;11.50;;;;;;;1.21;100.00;96701.44;110494;1248;69230;-68
2023/02/27 03:11:00;;;;;;;17.90;11.70;;;;;;;1.20;100.00;96705.75;110321;1242;58945;-68
2023/02/27 03:13:51;;;;;;;15.40;10.70;;;;;;;1.21;100.00;96711.91;110144;1245;58875;-68
2023/02/27 03:16:59;;;;;;;16.80;11.00;;;;;;;1.21;100.00;96723.27;110466;1242;70495;-67
2023/02/27 03:19:49;;;;;;;28.50;13.00;;;;;;;1.20;100.00;96734.09;109778;1247;69171;-67
2023/02/27 03:22:26;;;;;;;25.80;12.90;;;;;;;1.21;100.00;96742.30;110187;1244;69239;-68
2023/02/27 03:25:01;;;;;;;17.90;10.50;;;;;;;1.17;100.00;96755.85;110331;1241;58866;-68
2023/02/27 03:27:37;;;;;;;18.00;11.60;;;;;;;1.12;100.00;96760.55;110217;1240;58931;-67
2023/02/27 03:30:41;;;;;;;19.70;11.70;;;;;;;1.09;100.00;96763.96;110317;1241;70424;-68
2023/02/27 03:33:26;;;;;;;18.90;11.10;;;;;;;1.11;100.00;96753.05;110233;1242;69275;-68
2023/02/27 03:36:09;;;;;;;16.00;10.30;;;;;;;1.13;100.00;96751.07;110553;1242;69264;-68
2023/02/27 03:39:21;;;;;;;14.90;10.80;;;;;;;1.16;100.00;96750.27;110503;1243;58876;-68
2023/02/27 03:42:13;;;;;;;15.80;10.40;;;;;;;1.19;100.00;96753.05;110170;1244;58872;-67
2023/02/27 03:45:05;;;;;;;16.80;10.60;;;;;;;1.21;100.00;96760.16;110365;1241;70633;-69
2023/02/27 03:47:37;;;;;;;19.90;11.30;;;;;;;1.23;100.00;96769.14;110284;1245;68637;-68
2023/02/27 03:50:08;;;;;;;15.70;9.40;;;;;;;1.22;100.00;96779.33;110235;1241;69580;-69
2023/02/27 03:52:39;;;;;;;15.40;9.40;;;;;;;1.19;100.00;96785.64;110162;1244;58976;-69
2023/02/27 03:55:16;;;;;;;13.40;9.40;;;;;;;1.18;100.00;96788.45;110218;1241;58806;-67
2023/02/27 03:57:48;;;;;;;15.40;9.40;;;;;;;1.13;100.00;96791.08;110225;1244;70535;-67
2023/02/27 04:00:21;;;;;;;14.00;9.30;;;;;;;1.13;100.00;96793.80;110334;1241;67707;-67
2023/02/27 04:02:57;;;;;;;12.20;8.60;;;;;;;1.15;100.00;96791.67;110194;1244;69282;-67
2023/02/27 04:05:28;;;;;;;11.20;7.60;;;;;;;1.16;100.00;96795.88;110316;1242;59258;-67
2023/02/27 04:08:25;;;;;;;9.30;6.70;;;;;;;1.17;100.00;96791.40;110390;1241;59269;-68
2023/02/27 04:11:02;;;;;;;11.80;7.70;;;;;;;1.16;100.00;96790.42;110444;1239;70494;-67
2023/02/27 04:13:50;;;;;;;12.70;8.10;;;;;;;1.17;100.00;96794.98;110390;1241;70136;-68
2023/02/27 04:16:44;;;;;;;11.40;8.00;;;;;;;1.18;100.00;96794.63;110409;1241;69867;-68
2023/02/27 04:19:29;;;;;;;12.60;8.80;;;;;;;1.17;100.00;96793.80;110459;1248;58947;-67
2023/02/27 04:21:58;;;;;;;8.80;7.20;;;;;;;1.16;100.00;96791.29;110480;1241;58864;-67
2023/02/27 04:24:57;;;;;;;11.30;8.40;;;;;;;1.17;100.00;96795.02;110311;1241;70591;-67
2023/02/27 04:27:50;;;;;;;10.50;7.00;;;;;;;1.16;100.00;96795.75;110151;1244;69146;-68
2023/02/27 04:30:31;;;;;;;8.50;6.50;;;;;;;1.15;100.00;96795.80;110284;1248;67377;-68
2023/02/27 04:33:09;;;;;;;10.60;8.10;;;;;;;1.16;100.00;96802.95;110336;1244;58859;-68
2023/02/27 04:35:54;;;;;;;12.50;8.30;;;;;;;1.15;100.00;96805.56;110356;1242;58862;-68
2023/02/27 04:38:58;;;;;;;10.60;7.90;;;;;;;1.13;100.00;96807.20;110408;1241;70553;-68
2023/02/27 04:41:42;;;;;;;10.80;7.90;;;;;;;1.13;100.00;96805.66;110374;1241;69235;-68
2023/02/27 04:44:13;;;;;;;15.60;9.80;;;;;;;1.11;100.00;96810.21;110426;1241;68592;-68
2023/02/27 04:46:44;;;;;;;11.90;8.20;;;;;;;1.13;100.00;96811.13;110419;1241;58966;-68
2023/02/27 04:49:20;;;;;;;11.90;8.70;;;;;;;1.15;100.00;96804.88;110342;1239;58921;-68
2023/02/27 04:52:24;;;;;;;9.80;8.00;;;;;;;1.18;100.00;96810.58;110510;1241;69933;-68
2023/02/27 04:55:04;;;;;;;8.30;6.60;;;;;;;1.21;100.00;96813.69;110324;1241;69089;-67
2023/02/27 04:57:40;;;;;;;12.40;8.70;;;;;;;1.22;100.00;96817.93;110306;1240;68486;-68
2023/02/27 05:00:12;;;;;;;10.80;8.10;;;;;;;1.23;100.00;96826.48;110363;1241;58968;-68
2023/02/27 05:02:46;;;;;;;11.10;8.30;;;;;;;1.25;100.00;96831.73;110438;1241;58823;-67
2023/02/27 05:05:23;;;;;;;12.20;8.10;;;;;;;1.26;100.00;96835.30;110438;1241;69879;-68
2023/02/27 05:08:02;;;;;;;10.80;8.20;;;;;;;1.26;100.00;96831.67;110477;1241;69089;-68
2023/02/27 05:10:39;;;;;;;11.30;8.70;;;;;;;1.27;100.00;96838.65;110481;1244;69940;-67
2023/02/27 05:13:17;;;;;;;13.40;9.10;;;;;;;1.28;100.00;96843.75;110346;1240;58868;-67
2023/02/27 05:15:51;;;;;;;13.70;8.90;;;;;;;1.29;100.00;96855.23;110534;1241;58898;-68
2023/02/27 05:18:22;;;;;;;14.50;9.90;;;;;;;1.29;100.00;96860.55;110407;1241;71168;-68
2023/02/27 05:20:55;;;;;;;;;;;;;;;1.26;100.00;96867.36;110520;1241;69904;-68
2023/02/27 05:23:40;;;;;;;14.80;10.20;;;;;;;1.25;100.00;96864.16;110512;1242;69260;-68
2023/02/27 05:26:18;;;;;;;14.40;9.40;;;;;;;1.25;100.00;96867.45;110559;1240;58967;-69
2023/02/27 05:28:59;;;;;;;13.80;9.50;;;;;;;1.25;100.00;96857.28;110394;1241;58928;-68
2023/02/27 05:31:41;;;;;;;14.80;9.80;;;;;;;1.27;100.00;96857.87;110453;1241;69755;-68
2023/02/27 05:34:28;;;;;;;15.00;9.20;;;;;;;1.30;100.00;96858.09;110470;1241;68230;-68
2023/02/27 05:37:28;;;;;;;14.40;10.70;;;;;;;1.32;100.00;96869.34;110439;1241;70331;-68
2023/02/27 05:40:04;;;;;;;13.80;8.90;;;;;;;1.34;100.00;96882.30;110496;1241;58853;-68
2023/02/27 05:42:40;;;;;;;13.20;9.00;;;;;;;1.35;100.00;96889.80;110210;1244;58982;-67
2023/02/27 05:45:16;;;;;;;13.50;9.00;;;;;;;1.38;100.00;96896.02;110509;1241;70613;-67
2023/02/27 05:47:54;;;;;;;18.00;10.80;;;;;;;1.38;100.00;96901.69;110526;1241;69279;-67
2023/02/27 05:50:31;;;;;;;16.80;11.20;;;;;;;1.36;100.00;96911.92;110460;1241;69395;-67
2023/02/27 05:53:04;;;;;;;13.40;10.10;;;;;;;1.35;100.00;96916.60;110527;1242;58920;-67
2023/02/27 05:55:55;;;;;;;13.30;8.90;;;;;;;1.36;100.00;96918.79;110501;1241;58911;-67
2023/02/27 05:58:40;;;;;;;15.80;10.30;;;;;;;1.35;100.00;96926.55;110383;1241;70623;-67
2023/02/27 06:01:11;;;;;;;15.60;10.30;;;;;;;1.35;100.00;96923.64;110558;1240;69928;-67
2023/02/27 06:03:42;;;;;;;16.90;11.00;;;;;;;1.32;100.00;96933.02;110534;1241;68719;-67
2023/02/27 06:06:13;;;;;;;;;;;;;;;1.33;100.00;96940.38;110508;1241;58945;-67
2023/02/27 06:08:43;;;;;;;18.70;11.40;;;;;;;1.25;100.00;96954.28;110493;1241;58905;-67
2023/02/27 06:11:12;;;;;;;16.40;11.60;;;;;;;1.21;100.00;96962.17;110518;1247;70929;-67
2023/02/27 06:13:40;;;;;;;22.30;13.60;;;;;;;1.22;100.00;96967.12;110468;1241;69891;-67
2023/02/27 06:16:12;;;;;;;21.90;14.50;;;;;;;1.23;100.00;96967.73;110178;1240;69273;-67
2023/02/27 06:18:41;;;;;;;19.90;13.20;;;;;;;1.25;100.00;96968.89;110499;1241;58896;-67
2023/02/27 06:21:12;;;;;;;20.40;12.70;;;;;;;1.24;100.00;96972.84;110510;1241;58854;-67
2023/02/27 06:23:41;;;;;;;14.80;10.90;;;;;;;1.21;100.00;96970.08;110550;1240;71555;-67
2023/02/27 06:26:13;;;;;;;11.00;7.80;;;;;;;1.13;100.00;96975.77;110516;1241;69674;-68
2023/02/27 06:28:42;;;;;;;8.60;6.60;;;;;;;0.99;100.00;96984.22;110461;1241;69748;-67
2023/02/27 06:31:11;;;;;;;7.50;5.80;;;;;;;0.93;100.00;96986.68;110503;1241;58858;-68
2023/02/27 06:33:41;;;;;;;8.60;7.20;;;;;;;0.88;100.00;96990.33;110532;1241;58872;-68
2023/02/27 06:36:10;;;;;;;7.80;6.50;;;;;;;0.77;100.00;96994.39;110460;1240;71193;-68
2023/02/27 06:38:39;;;;;;;9.30;5.30;;;;;;;0.67;100.00;96999.23;110507;1241;69289;-68
2023/02/27 06:41:08;;;;;;;9.60;7.10;;;;;;;0.63;100.00;97001.48;110312;1241;68370;-69
2023/02/27 06:43:38;;;;;;;9.60;6.90;;;;;;;0.59;100.00;97005.21;110285;1241;58870;-68
2023/02/27 06:46:07;;;;;;;9.20;7.50;;;;;;;0.52;100.00;97010.30;110462;1241;58875;-69
2023/02/27 06:48:36;;;;;;;8.90;7.50;;;;;;;0.53;100.00;97014.38;110321;1241;70509;-67
2023/02/27 06:51:05;;;;;;;9.20;7.20;;;;;;;0.57;100.00;97021.11;110318;1241;69750;-67
2023/02/27 06:53:34;;;;;;;9.70;6.70;;;;;;;0.56;100.00;97026.44;110443;1241;68530;-68
2023/02/27 06:56:03;;;;;;;9.00;7.20;;;;;;;0.55;100.00;97028.21;110473;1241;58941;-67
2023/02/27 06:58:32;;;;;;;19.80;14.60;;;;;;;0.56;100.00;97030.56;110531;1240;58959;-67
2023/02/27 07:01:01;;;;;;;13.60;9.10;;;;;;;0.53;100.00;97041.16;110470;1241;70030;-67
2023/02/27 07:03:30;;;;;;;13.60;10.30;;;;;;;0.48;100.00;97048.50;110324;1241;69687;-67
2023/02/27 07:05:59;;;;;;;10.90;8.20;;;;;;;0.51;100.00;97053.73;110489;1241;69874;-67
2023/02/27 07:08:28;;;;;;;10.60;7.80;;;;;;;0.52;100.00;97053.51;110513;1239;58875;-67
2023/02/27 07:10:58;;;;;;;9.80;7.30;;;;;;;0.53;100.00;97056.75;110514;1241;58835;-67
2023/02/27 07:13:27;;;;;;;;;;;;;;;0.51;100.00;97055.60;110348;1241;69913;-67
2023/02/27 07:15:56;;;;;;;11.30;7.90;;;;;;;0.51;100.00;97059.04;110308;1240;69120;-67
2023/02/27 07:18:25;;;;;;;11.80;8.20;;;;;;;0.51;100.00;97064.02;110417;1241;68511;-67
2023/02/27 07:20:54;;;;;;;9.70;7.00;;;;;;;0.47;100.00;97070.48;110166;1243;58933;-67
2023/02/27 07:23:23;;;;;;;11.80;8.40;;;;;;;0.50;100.00;97073.80;110386;1240;58946;-67
2023/02/27 07:25:52;;;;;;;11.50;8.40;;;;;;;0.48;100.00;97074.08;110464;1241;71062;-67
2023/02/27 07:28:21;;;;;;;10.60;7.30;;;;;;;0.47;100.00;97078.02;110435;1240;69801;-67
2023/02/27 07:30:55;;;;;;;12.50;9.50;;;;;;;0.46;100.00;97081.35;110394;1241;69058;-67
2023/02/27 07:33:24;;;;;;;15.60;11.50;;;;;;;0.46;100.00;97089.03;110489;1242;58894;-67
2023/02/27 07:35:53;;;;;;;12.90;10.40;;;;;;;0.42;100.00;97100.02;110547;1241;58869;-67
2023/02/27 07:38:22;;;;;;;13.20;10.40;;;;;;;0.33;100.00;97100.36;110477;1241;70594;-67
2023/02/27 07:40:52;;;;;;;15.50;11.00;;;;;;;0.27;100.00;97107.42;110515;1241;68218;-67
2023/02/27 07:43:21;;;;;;;13.20;10.90;;;;;;;0.27;100.00;97114.13;110465;1241;69187;-67
2023/02/27 07:45:51;;;;;;;26.80;18.30;;;;;;;0.26;100.00;97119.46;110365;1239;58887;-67
2023/02/27 07:48:19;;;;;;;23.50;16.80;;;;;;;0.30;100.00;97119.47;110397;1242;58822;-67
2023/02/27 07:50:48;;;;;;;15.00;12.10;;;;;;;0.30;100.00;97125.15;110475;1241;70158;-67
2023/02/27 07:53:17;;;;;;;12.50;10.10;;;;;;;0.30;100.00;97123.25;110426;1241;69800;-67
2023/02/27 07:55:46;;;;;;;12.10;9.70;;;;;;;0.25;100.00;97123.45;110457;1240;69606;-67
2023/02/27 07:58:14;;;;;;;11.40;8.40;;;;;;;0.28;100.00;97127.61;110503;1241;58937;-67
2023/02/27 08:00:44;;;;;;;10.30;7.90;;;;;;;0.32;100.00;97130.02;110515;1241;58820;-67
2023/02/27 08:03:12;;;;;;;10.00;8.60;;;;;;;0.33;100.00;97131.21;110510;1241;71305;-67
2023/02/27 08:05:41;;;;;;;10.30;7.80;;;;;;;0.33;100.00;97131.73;110516;1241;69648;-67
2023/02/27 08:08:11;;;;;;;10.20;8.40;;;;;;;0.35;100.00;97138.52;110410;1241;69268;-67
2023/02/27 08:10:40;;;;;;;14.60;9.90;;;;;;;0.37;100.00;97148.88;110516;1241;58921;-67
2023/02/27 08:13:09;;;;;;;18.70;11.00;;;;;;;0.34;100.00;97151.74;110462;1241;58881;-69
2023/02/27 08:15:38;;;;;;;13.10;8.70;;;;;;;0.37;100.00;97150.08;110424;1240;70061;-68
2023/02/27 08:18:06;;;;;;;47.30;26.30;;;;;;;0.41;100.00;97151.11;110527;1240;69218;-68
2023/02/27 08:20:36;;;;;;;30.10;19.80;;;;;;;0.45;100.00;97155.12;110405;1241;69695;-67
2023/02/27 08:23:05;;;;;;;13.90;9.50;;;;;;;0.48;100.00;97167.48;110557;1241;58918;-67
2023/02/27 08:25:34;;;;;;;19.20;13.20;;;;;;;0.49;100.00;97174.14;110463;1240;58933;-67
2023/02/27 08:28:03;;;;;;;11.40;8.20;;;;;;;0.47;100.00;97185.39;110480;1241;71507;-67
2023/02/27 08:30:32;;;;;;;11.50;8.60;;;;;;;0.42;100.00;97188.14;110477;1240;69798;-67
2023/02/27 08:33:02;;;;;;;9.60;8.00;;;;;;;0.41;100.00;97191.95;110451;1240;69534;-68
2023/02/27 08:35:31;;;;;;;9.50;7.80;;;;;;;0.37;100.00;97199.27;110393;1241;58925;-66
2023/02/27 08:38:00;;;;;;;12.70;8.60;;;;;;;0.35;100.00;97205.72;110544;1242;58917;-69
2023/02/27 08:40:29;;;;;;;11.50;8.90;;;;;;;0.35;100.00;97212.08;110537;1242;70354;-68
2023/02/27 08:42:58;;;;;;;11.30;8.60;;;;;;;0.35;100.00;97221.13;110542;1241;69303;-69
2023/02/27 08:45:27;;;;;;;11.40;8.20;;;;;;;0.29;100.00;97230.61;110342;1241;69435;-67
2023/02/27 08:47:57;;;;;;;11.10;8.60;;;;;;;0.28;100.00;97232.36;110532;1241;58916;-67
2023/02/27 08:50:26;;;;;;;14.90;10.60;;;;;;;0.23;100.00;97236.64;110483;1241;58900;-67
2023/02/27 08:52:54;;;;;;;18.90;12.50;;;;;;;0.22;100.00;97238.88;110463;1248;70555;-67
2023/02/27 08:55:23;;;;;;;12.40;9.70;;;;;;;0.21;100.00;97243.55;110420;1241;69678;-68
2023/02/27 08:57:52;;;;;;;20.20;12.90;;;;;;;0.22;100.00;97247.64;110410;1241;68576;-67
2023/02/27 09:00:22;;;;;;;14.20;9.80;;;;;;;0.25;100.00;97250.27;110504;1241;58887;-67
2023/02/27 09:02:51;;;;;;;10.80;8.50;;;;;;;0.27;100.00;97253.13;110459;1241;58944;-67
2023/02/27 09:05:21;;;;;;;24.50;17.10;;;;;;;0.31;100.00;97255.91;110516;1241;69840;-67
2023/02/27 09:07:50;;;;;;;14.20;10.80;;;;;;;0.33;100.00;97259.94;110494;1241;69619;-68
2023/02/27 09:10:19;;;;;;;18.30;12.10;;;;;;;0.34;100.00;97262.66;110454;1240;69359;-68
2023/02/27 09:12:48;;;;;;;16.20;11.00;;;;;;;0.39;100.00;97268.64;110450;1246;58950;-68
2023/02/27 09:15:17;;;;;;;11.50;10.10;;;;;;;0.40;100.00;97274.41;110486;1240;58944;-69
2023/02/27 09:17:45;;;;;;;10.80;9.40;;;;;;;0.39;100.00;97283.91;110408;1239;69773;-68
2023/02/27 09:20:15;;;;;;;12.80;9.50;;;;;;;0.35;100.00;97283.86;110497;1241;69147;-66
2023/02/27 09:22:44;;;;;;;11.60;9.80;;;;;;;0.36;100.00;97291.03;110492;1241;69921;-66
2023/02/27 09:25:13;;;;;;;12.60;9.90;;;;;;;0.31;100.00;97295.50;110502;1241;58920;-67
2023/02/27 09:27:42;;;;;;;11.90;9.70;;;;;;;0.30;100.00;97298.62;110380;1240;58888;-67
2023/02/27 09:30:11;;;;;;;15.70;11.10;;;;;;;0.25;100.00;97297.59;110395;1240;70339;-67
2023/02/27 09:32:40;;;;;;;10.80;8.80;;;;;;;0.19;100.00;97301.02;110438;1241;69801;-67
2023/02/27 09:35:10;;;;;;;12.10;9.70;;;;;;;0.21;100.00;97302.18;110424;1242;69509;-67
2023/02/27 09:37:39;;;;;;;13.80;11.00;;;;;;;0.23;100.00;97303.83;110389;1241;58864;-69
2023/02/27 09:40:18;;;;;;;15.40;10.70;;;;;;;0.26;100.00;97309.02;110305;1241;58890;-69
2023/02/27 09:42:47;;;;;;;17.20;11.80;;;;;;;0.31;100.00;97312.27;110356;1241;71010;-69
2023/02/27 09:45:28;;;;;;;18.50;11.60;;;;;;;0.33;100.00;97317.55;110348;1240;69820;-66
2023/02/27 09:48:05;;;;;;;13.00;8.80;;;;;;;0.36;100.00;97325.66;110379;1248;69104;-67
2023/02/27 09:50:40;;;;;;;15.20;9.60;;;;;;;0.35;100.00;97334.11;110567;1241;58946;-68
2023/02/27 09:53:15;;;;;;;12.40;9.50;;;;;;;0.34;100.00;97340.48;110538;1241;58866;-67
2023/02/27 09:55:45;;;;;;;11.60;8.70;;;;;;;0.36;100.00;97345.90;110482;1239;71191;-67
2023/02/27 09:58:33;;;;;;;;;;;;;;;0.30;100.00;97344.73;110498;1240;70146;-67
2023/02/27 10:01:05;;;;;;;18.80;16.00;;;;;;;0.35;100.00;97347.82;110464;1239;69970;-67
2023/02/27 10:04:06;;;;;;;15.10;12.20;;;;;;;0.40;100.00;97345.27;110536;1241;58925;-67
2023/02/27 10:06:52;;;;;;;17.30;11.20;;;;;;;0.44;100.00;97344.41;110383;1241;58887;-67
2023/02/27 10:09:49;;;;;;;18.50;11.80;;;;;;;0.46;100.00;97348.81;110214;1244;71142;-68
2023/02/27 10:12:43;;;;;;;18.30;11.50;;;;;;;0.55;100.00;97350.08;110413;1241;69059;-67
2023/02/27 10:15:29;;;;;;;16.70;11.70;;;;;;;0.63;100.00;97348.09;110493;1241;68502;-67
2023/02/27 10:18:08;;;;;;;16.40;10.40;;;;;;;0.65;100.00;97345.44;110344;1241;58857;-68
2023/02/27 10:21:07;;;;;;;13.70;9.20;;;;;;;0.66;100.00;97343.86;110382;1241;58869;-68
2023/02/27 10:23:52;;;;;;;15.20;9.90;;;;;;;0.71;100.00;97351.06;110336;1242;70505;-68
2023/02/27 10:26:42;;;;;;;13.80;10.10;;;;;;;0.71;100.00;97357.24;110426;1241;69891;-68
2023/02/27 10:29:20;;;;;;;12.30;9.70;;;;;;;0.72;100.00;97368.85;110384;1240;69842;-68
2023/02/27 10:31:59;;;;;;;14.10;9.90;;;;;;;0.72;100.00;97373.84;110511;1240;58938;-67
2023/02/27 10:34:30;;;;;;;14.70;10.50;;;;;;;0.71;100.00;97376.63;110474;1239;58951;-67
2023/02/27 10:37:04;;;;;;;11.30;8.90;;;;;;;0.76;100.00;97374.39;110428;1240;71031;-68
2023/02/27 10:40:03;;;;;;;11.10;8.30;;;;;;;0.78;100.00;97380.84;110445;1240;69396;-68
2023/02/27 10:42:36;;;;;;;14.80;11.60;;;;;;;0.74;100.00;97380.80;110448;1241;69936;-68
2023/02/27 10:45:14;;;;;;;13.40;10.80;;;;;;;0.75;100.00;97379.39;110442;1241;58943;-68
2023/02/27 10:47:44;;;;;;;12.60;10.00;;;;;;;0.87;100.00;97376.24;110450;1240;58866;-68
2023/02/27 10:50:27;;;;;;;12.80;9.20;;;;;;;1.04;100.00;97382.19;110546;1241;69850;-68
2023/02/27 10:52:59;;;;;;;9.60;8.50;;;;;;;1.20;100.00;97387.45;110550;1240;68269;-68
2023/02/27 10:55:34;;;;;;;11.40;9.70;;;;;;;1.34;100.00;97395.20;110460;1241;69228;-68
2023/02/27 10:58:04;;;;;;;8.40;7.10;;;;;;;1.42;100.00;97399.02;110448;1240;58964;-68
2023/02/27 11:00:33;;;;;;;;;;;;;;;1.50;100.00;97401.11;110515;1240;58877;-69
2023/02/27 11:03:03;;;;;;;10.70;8.20;;;;;;;1.57;100.00;97409.46;110481;1239;70835;-69
2023/02/27 11:05:35;;;;;;;10.60;8.10;;;;;;;1.59;100.00;97408.18;110536;1241;68264;-69
2023/02/27 11:08:21;;;;;;;11.70;9.90;;;;;;;1.60;100.00;97407.45;110465;1248;69095;-68
2023/02/27 11:11:01;;;;;;;11.50;9.40;;;;;;;1.63;100.00;97405.79;110460;1242;58931;-68
2023/02/27 11:13:38;;;;;;;11.40;10.20;;;;;;;1.70;100.00;97412.92;110371;1241;58926;-69
2023/02/27 11:16:14;;;;;;;8.70;6.80;;;;;;;1.73;100.00;97417.59;110537;1241;69928;-67
2023/02/27 11:18:48;;;;;;;6.60;5.50;;;;;;;1.65;100.00;97424.09;110390;1241;69819;-68
2023/02/27 11:21:27;;;;;;;6.20;5.60;;;;;;;1.63;100.00;97431.39;110544;1241;69950;-68
2023/02/27 11:24:16;;;;;;;7.10;6.00;;;;;;;1.62;100.00;97432.45;110463;1241;58953;-67
2023/02/27 11:26:57;;;;;;;7.70;6.90;;;;;;;1.62;100.00;97432.82;110156;1241;58913;-67
2023/02/27 11:29:27;;;;;;;6.80;6.00;;;;;;;1.66;100.00;97437.81;110321;1239;70963;-67
2023/02/27 11:32:01;;;;;;;7.50;6.70;;;;;;;1.60;100.00;97441.47;110523;1241;69221;-68
2023/02/27 11:34:35;;;;;;;7.20;6.50;;;;;;;1.68;100.00;97443.94;110529;1241;69161;-68
2023/02/27 11:37:22;;;;;;;8.00;6.90;;;;;;;1.69;100.00;97448.55;110529;1241;58938;-69
2023/02/27 11:40:04;;;;;;;7.30;6.50;;;;;;;1.76;100.00;97456.50;110486;1239;58853;-69
2023/02/27 11:42:35;;;;;;;8.00;6.70;;;;;;;1.75;100.00;97456.90;110529;1240;71089;-68
2023/02/27 11:45:20;;;;;;;7.90;7.10;;;;;;;1.81;100.00;97463.05;110540;1241;69405;-68
2023/02/27 11:48:20;;;;;;;7.10;6.30;;;;;;;1.82;100.00;97464.23;110442;1240;69059;-68
2023/02/27 11:50:55;;;;;;;8.10;6.60;;;;;;;1.85;100.00;97468.38;110534;1241;58872;-68
2023/02/27 11:53:40;;;;;;;7.90;5.70;;;;;;;1.91;100.00;97473.48;110438;1241;58865;-68
2023/02/27 11:56:21;;;;;;;7.50;6.50;;;;;;;1.90;100.00;97478.33;110361;1242;70621;-68